createdAt,value
2019-05-12T00:00:45.194Z,99586.73
2019-05-12T00:10:49.812Z,99573.09
2019-05-12T00:20:54.440Z,99578.59
2019-05-12T00:30:59.022Z,99581.59
2019-05-12T00:41:03.639Z,99595.94
2019-05-12T00:51:08.206Z,99600.42
2019-05-12T01:01:13.819Z,99604.69
2019-05-12T01:11:21.161Z,99630.58
2019-05-12T01:21:25.931Z,99638.94
2019-05-12T01:31:32.074Z,99634.75
2019-05-12T01:41:38.937Z,99642.38
2019-05-12T01:51:43.549Z,99659.04
2019-05-12T02:01:48.756Z,99662.99
2019-05-12T02:11:53.527Z,99661.50
2019-05-12T02:21:58.023Z,99657.87
2019-05-12T02:32:02.495Z,99665.80
2019-05-12T02:42:07.366Z,99691.14
2019-05-12T02:52:15.412Z,99707.59
2019-05-12T03:02:19.129Z,99710.92
2019-05-12T03:12:25.584Z,99724.58
2019-05-12T03:22:30.438Z,99752.20
2019-05-12T03:32:37.765Z,99769.41
2019-05-12T03:42:44.425Z,99771.12
2019-05-12T03:52:48.455Z,99777.61
2019-05-12T04:02:55.543Z,99801.19
2019-05-12T04:12:59.157Z,99805.83
2019-05-12T04:23:05.852Z,99817.44
2019-05-12T04:33:10.905Z,99835.44
2019-05-12T04:43:15.554Z,99864.19
2019-05-12T04:53:21.154Z,99873.69
2019-05-12T05:03:25.620Z,99890.00
2019-05-12T05:13:30.123Z,99911.06
2019-05-12T05:23:34.592Z,99941.38
2019-05-12T05:33:39.170Z,99967.97
2019-05-12T05:43:43.921Z,99965.52
2019-05-12T05:53:51.442Z,99985.02
2019-05-12T06:04:03.110Z,99999.83
2019-05-12T06:14:11.114Z,100016.91
2019-05-12T06:24:14.146Z,100038.34
2019-05-12T06:34:20.530Z,100040.12
2019-05-12T06:44:24.022Z,100068.41
2019-05-12T06:54:28.716Z,100121.98
2019-05-12T07:26:26.547Z,100183.77
2019-05-12T07:36:33.398Z,100189.20
2019-05-12T07:46:39.742Z,100214.95
2019-05-12T07:56:44.455Z,100258.33
2019-05-12T08:50:36.725Z,100323.30
2019-05-12T09:00:46.394Z,100318.27
2019-05-12T09:10:47.863Z,100329.91
2019-05-12T09:20:55.517Z,100337.23
2019-05-12T09:30:58.857Z,100375.57
2019-05-12T09:41:05.436Z,100390.96
2019-05-12T09:51:09.706Z,100392.06
2019-05-12T10:01:14.249Z,100414.43
2019-05-12T10:11:20.742Z,100431.77
2019-05-12T10:21:25.002Z,100446.19
2019-05-12T10:31:34.825Z,100449.20
2019-05-12T10:41:35.820Z,100467.58
2019-05-12T10:51:40.421Z,100505.77
2019-05-12T11:01:48.840Z,100511.30
2019-05-12T11:11:54.073Z,100537.76
2019-05-12T11:22:03.621Z,100544.24
2019-05-12T11:32:08.567Z,100572.92
2019-05-12T11:42:13.654Z,100585.27
2019-05-12T11:52:19.521Z,100604.23
2019-05-12T12:02:26.215Z,100638.30
2019-05-12T12:12:30.697Z,100668.14
2019-05-12T12:22:37.044Z,100683.40
2019-05-12T12:32:44.345Z,100697.12
2019-05-12T12:42:48.933Z,100719.89
2019-05-12T12:52:53.538Z,100716.52
2019-05-12T13:02:58.217Z,100730.53
2019-05-12T13:13:04.311Z,100749.04
2019-05-12T13:23:09.027Z,100754.83
2019-05-12T13:33:17.208Z,100767.80
2019-05-12T13:43:19.914Z,100785.33
2019-05-12T13:53:24.509Z,100801.17
2019-05-12T14:03:28.967Z,100825.70
2019-05-12T14:13:34.537Z,100843.38
2019-05-12T14:23:39.069Z,100853.00
2019-05-12T14:33:44.229Z,100842.52
2019-05-12T14:43:53.626Z,100842.84
2019-05-12T14:53:56.400Z,100852.84
2019-05-12T15:04:00.988Z,100857.66
2019-05-12T15:14:05.593Z,100873.30
2019-05-12T15:24:17.038Z,100863.39
2019-05-12T15:34:16.252Z,100874.92
2019-05-12T15:44:23.186Z,100891.41
2019-05-12T15:54:27.092Z,100887.87
2019-05-12T16:04:34.528Z,100910.38
2019-05-12T16:14:41.182Z,100914.72
2019-05-12T16:24:48.805Z,100926.77
2019-05-12T16:34:50.045Z,100942.08
2019-05-12T16:45:03.970Z,100971.28
2019-05-12T16:55:03.517Z,100989.23
2019-05-12T17:05:15.632Z,100998.25
2019-05-12T17:15:14.984Z,100999.21
2019-05-12T17:25:23.768Z,101003.62
2019-05-12T17:35:31.682Z,101012.98
2019-05-12T17:45:35.083Z,101025.53
2019-05-12T17:55:44.363Z,101016.68
2019-05-12T18:05:48.028Z,101024.83
2019-05-12T18:15:52.932Z,101038.28
2019-05-12T18:26:03.149Z,101060.90
2019-05-12T18:36:04.067Z,101075.52
2019-05-12T18:46:09.481Z,101088.72
2019-05-12T18:56:21.409Z,101099.84
2019-05-12T19:06:23.364Z,101119.56
2019-05-12T19:16:28.167Z,101123.00
2019-05-12T19:26:32.955Z,101126.44
2019-05-12T19:36:44.921Z,101134.77
2019-05-12T19:46:49.230Z,101136.14
2019-05-12T19:56:53.616Z,101151.97
2019-05-12T20:06:57.627Z,101159.55
2019-05-12T20:17:03.240Z,101172.77
2019-05-12T20:27:10.599Z,101188.19
2019-05-12T20:37:16.703Z,101191.81
2019-05-12T20:47:20.215Z,101190.52
2019-05-12T20:57:24.706Z,101206.75
2019-05-12T21:07:29.152Z,101207.22
2019-05-12T21:17:40.594Z,101202.87
2019-05-12T21:27:43.790Z,101203.84
2019-05-12T21:37:48.512Z,101216.60
2019-05-12T21:47:54.493Z,101210.94
2019-05-12T21:58:01.666Z,101198.24
2019-05-12T22:08:17.593Z,101196.62
2019-05-12T22:18:15.419Z,101214.58
2019-05-12T22:28:19.877Z,101232.61
2019-05-12T22:38:24.893Z,101241.48
2019-05-12T22:48:35.349Z,101240.22
2019-05-12T22:58:36.569Z,101247.33
2019-05-12T23:08:45.073Z,101243.11
2019-05-12T23:18:47.303Z,101241.94
2019-05-12T23:28:53.468Z,101240.34
2019-05-12T23:39:02.870Z,101246.17
2019-05-12T23:49:04.385Z,101265.50
2019-05-12T23:59:08.954Z,101268.20
